sensor_id;sensor_type;location;lat;lon;timestamp;P1;durP1;ratioP1;P2;durP2;ratioP2
62543;SDS011;48597;49.030;1.822;2022-12-07T00:01:24;3.03;;;2.72;;
62543;SDS011;48597;49.030;1.822;2022-12-07T00:03:52;3.15;;;2.85;;
62543;SDS011;48597;49.030;1.822;2022-12-07T00:06:19;3.60;;;2.90;;
62543;SDS011;48597;49.030;1.822;2022-12-07T00:08:45;2.83;;;2.50;;
62543;SDS011;48597;49.030;1.822;2022-12-07T00:11:12;3.42;;;2.88;;
62543;SDS011;48597;49.030;1.822;2022-12-07T00:13:39;3.45;;;2.53;;
62543;SDS011;48597;49.030;1.822;2022-12-07T00:16:07;3.58;;;2.80;;
62543;SDS011;48597;49.030;1.822;2022-12-07T00:18:37;3.70;;;2.80;;
62543;SDS011;48597;49.030;1.822;2022-12-07T00:23:41;3.10;;;2.80;;
62543;SDS011;48597;49.030;1.822;2022-12-07T00:26:16;2.80;;;2.60;;
62543;SDS011;48597;49.030;1.822;2022-12-07T00:28:59;3.50;;;3.05;;
62543;SDS011;48597;49.030;1.822;2022-12-07T00:31:28;2.95;;;2.65;;
62543;SDS011;48597;49.030;1.822;2022-12-07T00:33:55;3.33;;;2.78;;
62543;SDS011;48597;49.030;1.822;2022-12-07T00:36:22;2.78;;;2.58;;
62543;SDS011;48597;49.030;1.822;2022-12-07T00:38:49;3.08;;;2.70;;
62543;SDS011;48597;49.030;1.822;2022-12-07T00:41:16;3.05;;;2.65;;
62543;SDS011;48597;49.030;1.822;2022-12-07T00:43:44;3.20;;;2.90;;
62543;SDS011;48597;49.030;1.822;2022-12-07T00:46:10;3.17;;;2.78;;
62543;SDS011;48597;49.030;1.822;2022-12-07T00:48:36;3.05;;;2.75;;
62543;SDS011;48597;49.030;1.822;2022-12-07T00:51:03;3.10;;;2.80;;
62543;SDS011;48597;49.030;1.822;2022-12-07T00:53:29;3.10;;;2.80;;
62543;SDS011;48597;49.030;1.822;2022-12-07T00:55:55;2.97;;;2.47;;
62543;SDS011;48597;49.030;1.822;2022-12-07T00:58:21;3.28;;;2.47;;
62543;SDS011;48597;49.030;1.822;2022-12-07T01:00:47;2.72;;;2.53;;
62543;SDS011;48597;49.030;1.822;2022-12-07T01:03:13;2.92;;;2.63;;
62543;SDS011;48597;49.030;1.822;2022-12-07T01:05:40;2.53;;;2.33;;
62543;SDS011;48597;49.030;1.822;2022-12-07T01:08:13;2.85;;;2.63;;
62543;SDS011;48597;49.030;1.822;2022-12-07T01:10:40;2.97;;;2.58;;
62543;SDS011;48597;49.030;1.822;2022-12-07T01:13:05;2.90;;;2.50;;
62543;SDS011;48597;49.030;1.822;2022-12-07T01:15:31;2.55;;;2.35;;
62543;SDS011;48597;49.030;1.822;2022-12-07T01:17:56;2.90;;;2.58;;
62543;SDS011;48597;49.030;1.822;2022-12-07T01:20:21;2.97;;;2.67;;
62543;SDS011;48597;49.030;1.822;2022-12-07T01:22:47;3.05;;;2.53;;
62543;SDS011;48597;49.030;1.822;2022-12-07T01:25:12;3.30;;;3.00;;
62543;SDS011;48597;49.030;1.822;2022-12-07T01:27:38;2.50;;;2.13;;
62543;SDS011;48597;49.030;1.822;2022-12-07T01:30:05;2.72;;;2.50;;
62543;SDS011;48597;49.030;1.822;2022-12-07T01:32:31;2.45;;;2.25;;
62543;SDS011;48597;49.030;1.822;2022-12-07T01:34:57;2.53;;;2.33;;
62543;SDS011;48597;49.030;1.822;2022-12-07T01:37:23;2.60;;;2.40;;
62543;SDS011;48597;49.030;1.822;2022-12-07T01:39:48;2.60;;;2.35;;
62543;SDS011;48597;49.030;1.822;2022-12-07T01:42:15;2.58;;;2.35;;
62543;SDS011;48597;49.030;1.822;2022-12-07T01:47:43;2.50;;;2.30;;
62543;SDS011;48597;49.030;1.822;2022-12-07T01:50:13;2.78;;;2.42;;
62543;SDS011;48597;49.030;1.822;2022-12-07T01:52:39;2.63;;;2.42;;
62543;SDS011;48597;49.030;1.822;2022-12-07T01:55:07;2.58;;;2.38;;
62543;SDS011;48597;49.030;1.822;2022-12-07T01:57:36;2.40;;;2.20;;
62543;SDS011;48597;49.030;1.822;2022-12-07T02:00:08;3.00;;;2.63;;
62543;SDS011;48597;49.030;1.822;2022-12-07T02:02:41;2.40;;;2.20;;
62543;SDS011;48597;49.030;1.822;2022-12-07T02:05:11;2.65;;;2.40;;
62543;SDS011;48597;49.030;1.822;2022-12-07T02:07:38;2.40;;;2.20;;
62543;SDS011;48597;49.030;1.822;2022-12-07T02:12:43;3.15;;;2.60;;
62543;SDS011;48597;49.030;1.822;2022-12-07T02:15:14;3.03;;;2.40;;
62543;SDS011;48597;49.030;1.822;2022-12-07T02:20:39;2.53;;;2.20;;
62543;SDS011;48597;49.030;1.822;2022-12-07T02:26:44;2.65;;;2.30;;
62543;SDS011;48597;49.030;1.822;2022-12-07T02:32:13;2.42;;;2.22;;
62543;SDS011;48597;49.030;1.822;2022-12-07T02:35:07;2.50;;;2.28;;
62543;SDS011;48597;49.030;1.822;2022-12-07T02:38:00;2.90;;;2.33;;
62543;SDS011;48597;49.030;1.822;2022-12-07T02:40:35;2.35;;;2.00;;
62543;SDS011;48597;49.030;1.822;2022-12-07T02:43:09;2.80;;;2.40;;
62543;SDS011;48597;49.030;1.822;2022-12-07T02:45:40;2.30;;;2.10;;
62543;SDS011;48597;49.030;1.822;2022-12-07T02:48:07;2.40;;;2.20;;
62543;SDS011;48597;49.030;1.822;2022-12-07T02:50:35;2.47;;;2.28;;
62543;SDS011;48597;49.030;1.822;2022-12-07T02:53:01;2.30;;;2.10;;
62543;SDS011;48597;49.030;1.822;2022-12-07T02:55:37;2.50;;;2.28;;
62543;SDS011;48597;49.030;1.822;2022-12-07T03:00:59;3.05;;;2.60;;
62543;SDS011;48597;49.030;1.822;2022-12-07T03:03:34;2.50;;;2.30;;
62543;SDS011;48597;49.030;1.822;2022-12-07T03:06:15;2.50;;;2.30;;
62543;SDS011;48597;49.030;1.822;2022-12-07T03:08:56;2.30;;;2.10;;
62543;SDS011;48597;49.030;1.822;2022-12-07T03:11:45;2.30;;;2.10;;
62543;SDS011;48597;49.030;1.822;2022-12-07T03:14:17;2.10;;;1.90;;
62543;SDS011;48597;49.030;1.822;2022-12-07T03:17:31;2.33;;;2.13;;
62543;SDS011;48597;49.030;1.822;2022-12-07T03:19:39;2.25;;;2.08;;
62543;SDS011;48597;49.030;1.822;2022-12-07T03:22:07;2.40;;;2.20;;
62543;SDS011;48597;49.030;1.822;2022-12-07T03:24:37;2.35;;;2.15;;
62543;SDS011;48597;49.030;1.822;2022-12-07T03:27:17;2.60;;;2.25;;
62543;SDS011;48597;49.030;1.822;2022-12-07T03:29:48;2.42;;;2.22;;
62543;SDS011;48597;49.030;1.822;2022-12-07T03:32:21;2.13;;;1.92;;
62543;SDS011;48597;49.030;1.822;2022-12-07T03:37:26;2.50;;;2.10;;
62543;SDS011;48597;49.030;1.822;2022-12-07T03:40:13;2.47;;;2.28;;
62543;SDS011;48597;49.030;1.822;2022-12-07T03:42:44;2.45;;;2.20;;
62543;SDS011;48597;49.030;1.822;2022-12-07T03:45:11;2.63;;;2.08;;
62543;SDS011;48597;49.030;1.822;2022-12-07T03:47:41;2.00;;;1.88;;
62543;SDS011;48597;49.030;1.822;2022-12-07T03:55:54;2.45;;;2.00;;
62543;SDS011;48597;49.030;1.822;2022-12-07T03:58:22;2.10;;;1.90;;
62543;SDS011;48597;49.030;1.822;2022-12-07T04:00:49;3.67;;;2.25;;
62543;SDS011;48597;49.030;1.822;2022-12-07T04:03:15;2.35;;;2.15;;
62543;SDS011;48597;49.030;1.822;2022-12-07T04:05:41;2.10;;;1.90;;
62543;SDS011;48597;49.030;1.822;2022-12-07T04:08:07;2.10;;;1.90;;
62543;SDS011;48597;49.030;1.822;2022-12-07T04:10:33;2.10;;;1.90;;
62543;SDS011;48597;49.030;1.822;2022-12-07T04:12:58;2.55;;;2.15;;
62543;SDS011;48597;49.030;1.822;2022-12-07T04:15:24;2.15;;;1.95;;
62543;SDS011;48597;49.030;1.822;2022-12-07T04:17:49;2.55;;;1.90;;
62543;SDS011;48597;49.030;1.822;2022-12-07T04:20:15;2.08;;;1.90;;
62543;SDS011;48597;49.030;1.822;2022-12-07T04:22:41;1.90;;;1.80;;
62543;SDS011;48597;49.030;1.822;2022-12-07T04:25:07;2.08;;;1.70;;
62543;SDS011;48597;49.030;1.822;2022-12-07T04:27:33;2.00;;;1.80;;
62543;SDS011;48597;49.030;1.822;2022-12-07T04:29:59;2.08;;;1.88;;
62543;SDS011;48597;49.030;1.822;2022-12-07T04:32:24;2.00;;;1.80;;
62543;SDS011;48597;49.030;1.822;2022-12-07T04:34:50;2.05;;;1.85;;
62543;SDS011;48597;49.030;1.822;2022-12-07T04:37:15;1.98;;;1.77;;
62543;SDS011;48597;49.030;1.822;2022-12-07T04:39:42;2.15;;;1.95;;
62543;SDS011;48597;49.030;1.822;2022-12-07T04:42:09;1.98;;;1.77;;
62543;SDS011;48597;49.030;1.822;2022-12-07T04:44:35;2.22;;;2.03;;
62543;SDS011;48597;49.030;1.822;2022-12-07T04:47:01;1.95;;;1.80;;
62543;SDS011;48597;49.030;1.822;2022-12-07T04:49:26;1.90;;;1.80;;
62543;SDS011;48597;49.030;1.822;2022-12-07T04:51:52;1.85;;;1.70;;
62543;SDS011;48597;49.030;1.822;2022-12-07T04:54:18;1.75;;;1.65;;
62543;SDS011;48597;49.030;1.822;2022-12-07T04:56:43;2.10;;;1.90;;
62543;SDS011;48597;49.030;1.822;2022-12-07T04:59:10;2.10;;;1.80;;
62543;SDS011;48597;49.030;1.822;2022-12-07T05:01:36;2.10;;;1.90;;
62543;SDS011;48597;49.030;1.822;2022-12-07T05:04:02;1.75;;;1.65;;
62543;SDS011;48597;49.030;1.822;2022-12-07T05:06:27;2.05;;;1.90;;
62543;SDS011;48597;49.030;1.822;2022-12-07T05:08:53;1.65;;;1.52;;
62543;SDS011;48597;49.030;1.822;2022-12-07T05:11:18;1.92;;;1.73;;
62543;SDS011;48597;49.030;1.822;2022-12-07T05:14:02;1.77;;;1.67;;
62543;SDS011;48597;49.030;1.822;2022-12-07T05:16:30;1.70;;;1.60;;
62543;SDS011;48597;49.030;1.822;2022-12-07T05:18:55;2.10;;;1.90;;
62543;SDS011;48597;49.030;1.822;2022-12-07T05:21:21;2.03;;;1.80;;
62543;SDS011;48597;49.030;1.822;2022-12-07T05:23:47;2.03;;;1.83;;
62543;SDS011;48597;49.030;1.822;2022-12-07T05:26:12;2.03;;;1.90;;
62543;SDS011;48597;49.030;1.822;2022-12-07T05:28:38;2.00;;;1.80;;
62543;SDS011;48597;49.030;1.822;2022-12-07T05:31:03;1.80;;;1.70;;
62543;SDS011;48597;49.030;1.822;2022-12-07T05:33:29;1.90;;;1.80;;
62543;SDS011;48597;49.030;1.822;2022-12-07T05:35:54;2.20;;;2.00;;
62543;SDS011;48597;49.030;1.822;2022-12-07T05:38:20;2.00;;;1.80;;
62543;SDS011;48597;49.030;1.822;2022-12-07T05:40:45;2.00;;;1.83;;
62543;SDS011;48597;49.030;1.822;2022-12-07T05:43:10;1.80;;;1.70;;
62543;SDS011;48597;49.030;1.822;2022-12-07T05:45:36;1.60;;;1.50;;
62543;SDS011;48597;49.030;1.822;2022-12-07T05:48:01;2.05;;;1.85;;
62543;SDS011;48597;49.030;1.822;2022-12-07T05:50:27;1.80;;;1.70;;
62543;SDS011;48597;49.030;1.822;2022-12-07T05:52:53;1.77;;;1.60;;
62543;SDS011;48597;49.030;1.822;2022-12-07T05:55:18;1.70;;;1.60;;
62543;SDS011;48597;49.030;1.822;2022-12-07T05:57:44;2.03;;;1.90;;
62543;SDS011;48597;49.030;1.822;2022-12-07T06:00:29;2.30;;;1.70;;
62543;SDS011;48597;49.030;1.822;2022-12-07T06:02:55;1.67;;;1.58;;
62543;SDS011;48597;49.030;1.822;2022-12-07T06:05:20;1.80;;;1.70;;
62543;SDS011;48597;49.030;1.822;2022-12-07T06:07:46;1.90;;;1.70;;
62543;SDS011;48597;49.030;1.822;2022-12-07T06:10:11;1.75;;;1.65;;
62543;SDS011;48597;49.030;1.822;2022-12-07T06:12:36;2.15;;;1.75;;
62543;SDS011;48597;49.030;1.822;2022-12-07T06:15:04;2.03;;;1.73;;
62543;SDS011;48597;49.030;1.822;2022-12-07T06:17:31;2.17;;;1.70;;
62543;SDS011;48597;49.030;1.822;2022-12-07T06:19:57;1.73;;;1.63;;
62543;SDS011;48597;49.030;1.822;2022-12-07T06:22:22;2.28;;;1.83;;
62543;SDS011;48597;49.030;1.822;2022-12-07T06:24:47;2.08;;;1.88;;
62543;SDS011;48597;49.030;1.822;2022-12-07T06:27:13;2.25;;;1.90;;
62543;SDS011;48597;49.030;1.822;2022-12-07T06:29:39;1.52;;;1.42;;
62543;SDS011;48597;49.030;1.822;2022-12-07T06:32:04;1.98;;;1.77;;
62543;SDS011;48597;49.030;1.822;2022-12-07T06:34:30;1.60;;;1.50;;
62543;SDS011;48597;49.030;1.822;2022-12-07T06:36:55;1.83;;;1.60;;
62543;SDS011;48597;49.030;1.822;2022-12-07T06:39:23;1.70;;;1.60;;
62543;SDS011;48597;49.030;1.822;2022-12-07T06:41:51;2.13;;;1.92;;
62543;SDS011;48597;49.030;1.822;2022-12-07T06:44:17;1.67;;;1.58;;
62543;SDS011;48597;49.030;1.822;2022-12-07T06:46:43;2.13;;;1.90;;
62543;SDS011;48597;49.030;1.822;2022-12-07T06:49:09;2.15;;;1.95;;
62543;SDS011;48597;49.030;1.822;2022-12-07T06:51:35;2.00;;;1.77;;
62543;SDS011;48597;49.030;1.822;2022-12-07T06:54:02;2.22;;;1.98;;
62543;SDS011;48597;49.030;1.822;2022-12-07T06:56:28;2.40;;;1.75;;
62543;SDS011;48597;49.030;1.822;2022-12-07T06:58:54;1.77;;;1.67;;
62543;SDS011;48597;49.030;1.822;2022-12-07T07:01:20;1.70;;;1.60;;
62543;SDS011;48597;49.030;1.822;2022-12-07T07:03:46;1.90;;;1.67;;
62543;SDS011;48597;49.030;1.822;2022-12-07T07:06:12;2.05;;;1.85;;
62543;SDS011;48597;49.030;1.822;2022-12-07T07:08:38;2.10;;;1.88;;
62543;SDS011;48597;49.030;1.822;2022-12-07T07:11:05;2.22;;;1.73;;
62543;SDS011;48597;49.030;1.822;2022-12-07T07:13:31;1.65;;;1.55;;
62543;SDS011;48597;49.030;1.822;2022-12-07T07:15:57;2.78;;;1.63;;
62543;SDS011;48597;49.030;1.822;2022-12-07T07:18:22;2.10;;;1.90;;
62543;SDS011;48597;49.030;1.822;2022-12-07T07:20:49;2.00;;;1.63;;
62543;SDS011;48597;49.030;1.822;2022-12-07T07:23:15;1.92;;;1.73;;
62543;SDS011;48597;49.030;1.822;2022-12-07T07:25:41;2.20;;;1.92;;
62543;SDS011;48597;49.030;1.822;2022-12-07T07:28:06;2.30;;;2.10;;
62543;SDS011;48597;49.030;1.822;2022-12-07T07:30:31;3.58;;;1.80;;
62543;SDS011;48597;49.030;1.822;2022-12-07T07:32:57;2.15;;;1.90;;
62543;SDS011;48597;49.030;1.822;2022-12-07T07:35:24;4.38;;;1.92;;
62543;SDS011;48597;49.030;1.822;2022-12-07T07:37:51;2.83;;;2.15;;
62543;SDS011;48597;49.030;1.822;2022-12-07T07:40:16;3.03;;;1.98;;
62543;SDS011;48597;49.030;1.822;2022-12-07T07:42:42;5.05;;;2.65;;
62543;SDS011;48597;49.030;1.822;2022-12-07T07:45:08;4.13;;;2.30;;
62543;SDS011;48597;49.030;1.822;2022-12-07T07:47:34;2.75;;;2.10;;
62543;SDS011;48597;49.030;1.822;2022-12-07T07:49:59;3.42;;;2.40;;
62543;SDS011;48597;49.030;1.822;2022-12-07T07:52:25;4.85;;;2.20;;
62543;SDS011;48597;49.030;1.822;2022-12-07T07:54:51;2.30;;;1.88;;
62543;SDS011;48597;49.030;1.822;2022-12-07T07:57:17;3.20;;;1.90;;
62543;SDS011;48597;49.030;1.822;2022-12-07T07:59:42;3.97;;;1.98;;
62543;SDS011;48597;49.030;1.822;2022-12-07T08:02:15;3.80;;;2.10;;
62543;SDS011;48597;49.030;1.822;2022-12-07T08:04:42;2.55;;;2.30;;
62543;SDS011;48597;49.030;1.822;2022-12-07T08:07:10;2.63;;;1.98;;
62543;SDS011;48597;49.030;1.822;2022-12-07T08:09:37;2.53;;;1.75;;
62543;SDS011;48597;49.030;1.822;2022-12-07T08:12:02;4.47;;;2.40;;
62543;SDS011;48597;49.030;1.822;2022-12-07T08:14:28;2.78;;;2.00;;
62543;SDS011;48597;49.030;1.822;2022-12-07T08:16:55;3.35;;;2.00;;
62543;SDS011;48597;49.030;1.822;2022-12-07T08:19:20;2.20;;;2.00;;
62543;SDS011;48597;49.030;1.822;2022-12-07T08:21:46;2.92;;;2.13;;
62543;SDS011;48597;49.030;1.822;2022-12-07T08:24:11;2.45;;;2.13;;
62543;SDS011;48597;49.030;1.822;2022-12-07T08:26:37;3.80;;;2.25;;
62543;SDS011;48597;49.030;1.822;2022-12-07T08:29:02;3.00;;;2.28;;
62543;SDS011;48597;49.030;1.822;2022-12-07T08:31:28;3.30;;;2.28;;
62543;SDS011;48597;49.030;1.822;2022-12-07T08:33:53;2.33;;;2.13;;
62543;SDS011;48597;49.030;1.822;2022-12-07T08:36:19;2.60;;;2.13;;
62543;SDS011;48597;49.030;1.822;2022-12-07T08:38:44;2.63;;;2.10;;
62543;SDS011;48597;49.030;1.822;2022-12-07T08:41:10;2.47;;;2.10;;
62543;SDS011;48597;49.030;1.822;2022-12-07T08:43:36;3.33;;;2.10;;
62543;SDS011;48597;49.030;1.822;2022-12-07T08:46:18;5.63;;;2.20;;
62543;SDS011;48597;49.030;1.822;2022-12-07T08:48:46;2.45;;;2.00;;
62543;SDS011;48597;49.030;1.822;2022-12-07T08:51:17;2.58;;;2.20;;
62543;SDS011;48597;49.030;1.822;2022-12-07T08:53:43;2.75;;;2.20;;
62543;SDS011;48597;49.030;1.822;2022-12-07T08:56:09;2.63;;;2.30;;
62543;SDS011;48597;49.030;1.822;2022-12-07T08:58:35;2.60;;;2.15;;
62543;SDS011;48597;49.030;1.822;2022-12-07T09:01:02;2.72;;;2.50;;
62543;SDS011;48597;49.030;1.822;2022-12-07T09:03:29;2.97;;;2.20;;
62543;SDS011;48597;49.030;1.822;2022-12-07T09:05:54;2.97;;;2.60;;
62543;SDS011;48597;49.030;1.822;2022-12-07T09:08:20;3.05;;;2.15;;
62543;SDS011;48597;49.030;1.822;2022-12-07T09:10:47;3.60;;;2.63;;
62543;SDS011;48597;49.030;1.822;2022-12-07T09:13:14;2.70;;;2.42;;
62543;SDS011;48597;49.030;1.822;2022-12-07T09:15:39;2.50;;;2.30;;
62543;SDS011;48597;49.030;1.822;2022-12-07T09:18:05;3.03;;;2.38;;
62543;SDS011;48597;49.030;1.822;2022-12-07T09:20:30;3.65;;;2.50;;
62543;SDS011;48597;49.030;1.822;2022-12-07T09:22:56;2.95;;;2.47;;
62543;SDS011;48597;49.030;1.822;2022-12-07T09:25:21;2.55;;;2.35;;
62543;SDS011;48597;49.030;1.822;2022-12-07T09:27:47;3.40;;;2.40;;
62543;SDS011;48597;49.030;1.822;2022-12-07T09:30:12;4.60;;;2.70;;
62543;SDS011;48597;49.030;1.822;2022-12-07T09:32:38;2.58;;;2.38;;
62543;SDS011;48597;49.030;1.822;2022-12-07T09:35:03;3.25;;;2.53;;
62543;SDS011;48597;49.030;1.822;2022-12-07T09:37:29;3.15;;;2.50;;
62543;SDS011;48597;49.030;1.822;2022-12-07T09:39:56;3.42;;;2.33;;
62543;SDS011;48597;49.030;1.822;2022-12-07T09:44:50;3.00;;;2.38;;
62543;SDS011;48597;49.030;1.822;2022-12-07T09:47:16;2.85;;;2.42;;
62543;SDS011;48597;49.030;1.822;2022-12-07T09:49:41;3.10;;;2.38;;
62543;SDS011;48597;49.030;1.822;2022-12-07T09:54:33;2.80;;;2.45;;
62543;SDS011;48597;49.030;1.822;2022-12-07T09:57:02;2.90;;;2.65;;
62543;SDS011;48597;49.030;1.822;2022-12-07T09:59:28;4.15;;;2.47;;
62543;SDS011;48597;49.030;1.822;2022-12-07T10:01:54;2.88;;;2.15;;
62543;SDS011;48597;49.030;1.822;2022-12-07T10:04:29;3.28;;;2.40;;
62543;SDS011;48597;49.030;1.822;2022-12-07T10:06:55;2.60;;;2.40;;
62543;SDS011;48597;49.030;1.822;2022-12-07T10:09:21;3.47;;;2.60;;
62543;SDS011;48597;49.030;1.822;2022-12-07T10:14:27;3.50;;;2.67;;
62543;SDS011;48597;49.030;1.822;2022-12-07T10:16:54;2.92;;;2.70;;
62543;SDS011;48597;49.030;1.822;2022-12-07T10:19:27;2.88;;;2.33;;
62543;SDS011;48597;49.030;1.822;2022-12-07T10:24:35;3.28;;;2.42;;
62543;SDS011;48597;49.030;1.822;2022-12-07T10:27:04;3.05;;;2.50;;
62543;SDS011;48597;49.030;1.822;2022-12-07T10:29:31;3.95;;;2.38;;
62543;SDS011;48597;49.030;1.822;2022-12-07T10:34:50;5.43;;;2.50;;
62543;SDS011;48597;49.030;1.822;2022-12-07T10:37:39;5.00;;;2.47;;
62543;SDS011;48597;49.030;1.822;2022-12-07T10:40:23;3.00;;;2.63;;
62543;SDS011;48597;49.030;1.822;2022-12-07T10:42:59;2.90;;;2.53;;
62543;SDS011;48597;49.030;1.822;2022-12-07T10:45:26;3.92;;;2.78;;
62543;SDS011;48597;49.030;1.822;2022-12-07T10:47:54;4.10;;;3.20;;
62543;SDS011;48597;49.030;1.822;2022-12-07T10:50:29;3.90;;;2.60;;
62543;SDS011;48597;49.030;1.822;2022-12-07T10:55:44;2.85;;;2.50;;
62543;SDS011;48597;49.030;1.822;2022-12-07T10:58:16;2.92;;;2.70;;
62543;SDS011;48597;49.030;1.822;2022-12-07T11:03:44;3.05;;;2.60;;
62543;SDS011;48597;49.030;1.822;2022-12-07T11:11:59;3.10;;;2.60;;
62543;SDS011;48597;49.030;1.822;2022-12-07T11:17:42;3.33;;;2.67;;
62543;SDS011;48597;49.030;1.822;2022-12-07T11:23:04;3.42;;;2.70;;
62543;SDS011;48597;49.030;1.822;2022-12-07T11:25:37;3.35;;;2.88;;
62543;SDS011;48597;49.030;1.822;2022-12-07T11:33:15;2.72;;;2.47;;
62543;SDS011;48597;49.030;1.822;2022-12-07T11:38:19;3.38;;;2.83;;
62543;SDS011;48597;49.030;1.822;2022-12-07T11:40:50;3.40;;;2.67;;
62543;SDS011;48597;49.030;1.822;2022-12-07T11:43:22;3.55;;;2.85;;
62543;SDS011;48597;49.030;1.822;2022-12-07T11:46:12;2.90;;;2.67;;
62543;SDS011;48597;49.030;1.822;2022-12-07T11:48:43;3.47;;;3.00;;
62543;SDS011;48597;49.030;1.822;2022-12-07T11:51:13;3.05;;;2.70;;
62543;SDS011;48597;49.030;1.822;2022-12-07T11:54:02;2.60;;;2.40;;
62543;SDS011;48597;49.030;1.822;2022-12-07T11:56:34;2.97;;;2.67;;
62543;SDS011;48597;49.030;1.822;2022-12-07T12:06:50;3.83;;;3.20;;
62543;SDS011;48597;49.030;1.822;2022-12-07T12:23:26;3.05;;;2.67;;
62543;SDS011;48597;49.030;1.822;2022-12-07T12:26:00;3.03;;;2.65;;
62543;SDS011;48597;49.030;1.822;2022-12-07T12:28:41;2.55;;;2.22;;
62543;SDS011;48597;49.030;1.822;2022-12-07T12:31:15;3.00;;;2.70;;
62543;SDS011;48597;49.030;1.822;2022-12-07T12:33:57;2.67;;;2.47;;
62543;SDS011;48597;49.030;1.822;2022-12-07T12:51:45;3.17;;;2.55;;
62543;SDS011;48597;49.030;1.822;2022-12-07T12:54:14;2.88;;;2.60;;
62543;SDS011;48597;49.030;1.822;2022-12-07T12:56:46;3.92;;;2.53;;
62543;SDS011;48597;49.030;1.822;2022-12-07T12:59:35;3.03;;;2.63;;
62543;SDS011;48597;49.030;1.822;2022-12-07T13:04:39;3.13;;;2.45;;
62543;SDS011;48597;49.030;1.822;2022-12-07T13:07:09;2.55;;;2.35;;
62543;SDS011;48597;49.030;1.822;2022-12-07T13:09:41;2.55;;;2.35;;
62543;SDS011;48597;49.030;1.822;2022-12-07T13:12:13;2.80;;;2.38;;
62543;SDS011;48597;49.030;1.822;2022-12-07T13:14:57;3.90;;;2.20;;
62543;SDS011;48597;49.030;1.822;2022-12-07T13:20:04;2.28;;;2.08;;
62543;SDS011;48597;49.030;1.822;2022-12-07T13:25:19;2.43;;;2.20;;
62543;SDS011;48597;49.030;1.822;2022-12-07T13:28:01;2.15;;;1.92;;
62543;SDS011;48597;49.030;1.822;2022-12-07T13:31:08;2.72;;;2.08;;
62543;SDS011;48597;49.030;1.822;2022-12-07T13:33:38;3.25;;;2.00;;
62543;SDS011;48597;49.030;1.822;2022-12-07T13:36:03;2.95;;;2.00;;
62543;SDS011;48597;49.030;1.822;2022-12-07T13:38:33;3.08;;;2.03;;
62543;SDS011;48597;49.030;1.822;2022-12-07T13:43:29;2.10;;;1.88;;
62543;SDS011;48597;49.030;1.822;2022-12-07T13:45:58;2.90;;;1.90;;
62543;SDS011;48597;49.030;1.822;2022-12-07T13:51:00;2.60;;;2.00;;
62543;SDS011;48597;49.030;1.822;2022-12-07T13:53:27;2.80;;;2.08;;
62543;SDS011;48597;49.030;1.822;2022-12-07T13:55:55;3.03;;;1.95;;
62543;SDS011;48597;49.030;1.822;2022-12-07T13:58:27;3.55;;;1.90;;
62543;SDS011;48597;49.030;1.822;2022-12-07T14:00:56;2.72;;;2.00;;
62543;SDS011;48597;49.030;1.822;2022-12-07T14:08:31;2.35;;;2.03;;
62543;SDS011;48597;49.030;1.822;2022-12-07T14:10:57;1.90;;;1.50;;
62543;SDS011;48597;49.030;1.822;2022-12-07T14:16:06;2.08;;;1.70;;
62543;SDS011;48597;49.030;1.822;2022-12-07T14:18:47;1.63;;;1.42;;
62543;SDS011;48597;49.030;1.822;2022-12-07T14:23:38;2.70;;;1.95;;
62543;SDS011;48597;49.030;1.822;2022-12-07T14:26:09;3.80;;;2.00;;
62543;SDS011;48597;49.030;1.822;2022-12-07T14:28:38;2.63;;;1.98;;
62543;SDS011;48597;49.030;1.822;2022-12-07T14:31:07;1.98;;;1.73;;
62543;SDS011;48597;49.030;1.822;2022-12-07T14:33:37;2.75;;;2.00;;
62543;SDS011;48597;49.030;1.822;2022-12-07T14:36:03;2.65;;;1.98;;
62543;SDS011;48597;49.030;1.822;2022-12-07T14:38:29;3.13;;;1.80;;
62543;SDS011;48597;49.030;1.822;2022-12-07T14:40:55;3.22;;;2.05;;
62543;SDS011;48597;49.030;1.822;2022-12-07T14:43:42;3.40;;;2.20;;
62543;SDS011;48597;49.030;1.822;2022-12-07T14:46:08;4.30;;;2.00;;
62543;SDS011;48597;49.030;1.822;2022-12-07T14:48:34;2.38;;;1.90;;
62543;SDS011;48597;49.030;1.822;2022-12-07T14:50:59;3.30;;;1.95;;
62543;SDS011;48597;49.030;1.822;2022-12-07T14:53:27;3.00;;;1.83;;
62543;SDS011;48597;49.030;1.822;2022-12-07T14:55:56;2.40;;;1.58;;
62543;SDS011;48597;49.030;1.822;2022-12-07T14:58:21;2.33;;;1.80;;
62543;SDS011;48597;49.030;1.822;2022-12-07T15:00:47;3.40;;;1.90;;
62543;SDS011;48597;49.030;1.822;2022-12-07T15:03:13;2.50;;;1.70;;
62543;SDS011;48597;49.030;1.822;2022-12-07T15:05:39;2.55;;;1.60;;
62543;SDS011;48597;49.030;1.822;2022-12-07T15:08:05;2.40;;;1.90;;
62543;SDS011;48597;49.030;1.822;2022-12-07T15:10:32;3.13;;;1.85;;
62543;SDS011;48597;49.030;1.822;2022-12-07T15:12:59;2.22;;;1.90;;
62543;SDS011;48597;49.030;1.822;2022-12-07T15:15:45;2.47;;;1.80;;
62543;SDS011;48597;49.030;1.822;2022-12-07T15:18:11;2.83;;;1.70;;
62543;SDS011;48597;49.030;1.822;2022-12-07T15:20:37;2.53;;;1.88;;
62543;SDS011;48597;49.030;1.822;2022-12-07T15:23:02;5.30;;;2.10;;
62543;SDS011;48597;49.030;1.822;2022-12-07T15:25:29;4.47;;;1.77;;
62543;SDS011;48597;49.030;1.822;2022-12-07T15:27:54;4.00;;;2.00;;
62543;SDS011;48597;49.030;1.822;2022-12-07T15:30:20;2.80;;;2.05;;
62543;SDS011;48597;49.030;1.822;2022-12-07T15:32:48;4.40;;;2.10;;
62543;SDS011;48597;49.030;1.822;2022-12-07T15:35:17;2.72;;;1.95;;
62543;SDS011;48597;49.030;1.822;2022-12-07T15:37:44;2.20;;;1.95;;
62543;SDS011;48597;49.030;1.822;2022-12-07T15:40:12;3.53;;;2.20;;
62543;SDS011;48597;49.030;1.822;2022-12-07T15:42:38;5.07;;;2.17;;
62543;SDS011;48597;49.030;1.822;2022-12-07T15:45:05;4.45;;;2.45;;
62543;SDS011;48597;49.030;1.822;2022-12-07T15:47:36;3.80;;;2.55;;
62543;SDS011;48597;49.030;1.822;2022-12-07T15:52:29;4.65;;;2.60;;
62543;SDS011;48597;49.030;1.822;2022-12-07T15:54:55;4.82;;;2.92;;
62543;SDS011;48597;49.030;1.822;2022-12-07T15:57:20;5.28;;;3.00;;
62543;SDS011;48597;49.030;1.822;2022-12-07T15:59:46;7.45;;;3.92;;
62543;SDS011;48597;49.030;1.822;2022-12-07T16:02:12;6.97;;;3.67;;
62543;SDS011;48597;49.030;1.822;2022-12-07T16:04:38;7.35;;;3.90;;
62543;SDS011;48597;49.030;1.822;2022-12-07T16:07:04;10.32;;;5.25;;
62543;SDS011;48597;49.030;1.822;2022-12-07T16:09:29;7.90;;;4.18;;
62543;SDS011;48597;49.030;1.822;2022-12-07T16:11:55;10.05;;;4.53;;
62543;SDS011;48597;49.030;1.822;2022-12-07T16:14:21;10.05;;;4.82;;
62543;SDS011;48597;49.030;1.822;2022-12-07T16:16:48;12.63;;;5.78;;
62543;SDS011;48597;49.030;1.822;2022-12-07T16:19:14;10.52;;;5.40;;
62543;SDS011;48597;49.030;1.822;2022-12-07T16:21:40;9.80;;;5.53;;
62543;SDS011;48597;49.030;1.822;2022-12-07T16:24:07;13.02;;;6.20;;
62543;SDS011;48597;49.030;1.822;2022-12-07T16:26:33;10.82;;;5.55;;
62543;SDS011;48597;49.030;1.822;2022-12-07T16:28:58;13.60;;;6.57;;
62543;SDS011;48597;49.030;1.822;2022-12-07T16:31:25;13.45;;;6.45;;
62543;SDS011;48597;49.030;1.822;2022-12-07T16:33:54;15.40;;;6.32;;
62543;SDS011;48597;49.030;1.822;2022-12-07T16:36:21;9.52;;;5.18;;
62543;SDS011;48597;49.030;1.822;2022-12-07T16:38:49;12.80;;;6.05;;
62543;SDS011;48597;49.030;1.822;2022-12-07T16:41:15;11.93;;;5.60;;
62543;SDS011;48597;49.030;1.822;2022-12-07T16:43:40;10.85;;;5.40;;
62543;SDS011;48597;49.030;1.822;2022-12-07T16:46:06;11.20;;;4.95;;
62543;SDS011;48597;49.030;1.822;2022-12-07T16:48:34;10.35;;;5.10;;
62543;SDS011;48597;49.030;1.822;2022-12-07T16:51:03;8.93;;;4.43;;
62543;SDS011;48597;49.030;1.822;2022-12-07T16:53:30;10.77;;;5.25;;
62543;SDS011;48597;49.030;1.822;2022-12-07T16:55:56;9.05;;;4.65;;
62543;SDS011;48597;49.030;1.822;2022-12-07T16:58:21;8.52;;;4.22;;
62543;SDS011;48597;49.030;1.822;2022-12-07T17:00:47;7.22;;;4.20;;
62543;SDS011;48597;49.030;1.822;2022-12-07T17:03:13;7.72;;;4.15;;
62543;SDS011;48597;49.030;1.822;2022-12-07T17:05:40;8.57;;;4.60;;